Time;durP1;ratioP1;P1;durP2;ratioP2;P2;SDS_P1;SDS_P2;PMS_P1;PMS_P2;Temp;Humidity;BMP_temperature;BMP_pressure;BME280_temperature;BME280_humidity;BME280_pressure;Samples;Min_cycle;Max_cycle;Signal;HPM_P1;HPM_P2
2023/04/23 00:01:15;;;;;;;16.40;12.00;;;;;;;12.27;42.00;99809.44;103104;1256;106945;-70
2023/04/23 00:04:01;;;;;;;20.90;12.10;;;;;;;12.20;42.20;99806.10;103237;1256;138873;-71
2023/04/23 00:06:29;;;;;;;19.50;12.50;;;;;;;12.15;42.43;99810.86;103413;1260;111302;-71
2023/04/23 00:09:15;;;;;;;19.10;12.10;;;;;;;12.09;42.49;99806.06;103008;1256;138172;-71
2023/04/23 00:12:01;;;;;;;17.80;12.10;;;;;;;12.04;42.73;99809.80;102737;1262;97984;-71
2023/04/23 00:14:33;;;;;;;22.20;12.60;;;;;;;11.97;42.92;99808.70;103726;1261;138456;-71
2023/04/23 00:17:00;;;;;;;18.40;12.60;;;;;;;11.92;43.13;99808.25;103282;1262;97816;-71
2023/04/23 00:19:44;;;;;;;17.60;12.40;;;;;;;11.86;43.24;99804.69;103182;1261;111474;-71
2023/04/23 00:22:29;;;;;;;20.10;13.80;;;;;;;11.79;43.48;99802.02;103987;1261;137931;-71
2023/04/23 00:24:52;;;;;;;20.20;12.50;;;;;;;11.75;43.76;99803.23;103024;1261;97799;-71
2023/04/23 00:27:35;;;;;;;22.50;13.00;;;;;;;11.68;43.88;99800.57;102792;1264;138019;-71
2023/04/23 00:30:13;;;;;;;22.00;12.60;;;;;;;11.63;44.08;99797.50;102687;1262;97908;-71
2023/04/23 00:32:57;;;;;;;19.00;11.80;;;;;;;11.57;44.34;99795.65;102338;1270;138298;-71
2023/04/23 00:35:22;;;;;;;18.70;11.90;;;;;;;11.53;44.54;99796.90;102453;1267;108228;-71
2023/04/23 00:37:48;;;;;;;20.80;11.80;;;;;;;11.47;44.46;99796.23;102875;1267;97857;-71
2023/04/23 00:40:32;;;;;;;22.60;12.30;;;;;;;11.44;44.69;99791.52;102425;1270;108870;-71
2023/04/23 00:42:59;;;;;;;19.30;12.40;;;;;;;11.41;44.77;99796.18;102614;1262;97936;-71
2023/04/23 00:45:23;;;;;;;18.30;12.10;;;;;;;11.37;45.04;99794.27;102663;1267;138243;-71
2023/04/23 00:47:58;;;;;;;17.10;12.30;;;;;;;11.33;45.06;99796.01;102611;1266;107456;-71
2023/04/23 00:50:23;;;;;;;18.70;12.20;;;;;;;11.29;45.11;99796.15;102643;1267;138594;-71
2023/04/23 00:53:00;;;;;;;18.30;13.00;;;;;;;11.25;45.40;99800.32;103748;1265;106352;-72
2023/04/23 00:55:24;;;;;;;21.40;12.30;;;;;;;11.21;45.46;99802.95;103445;1266;97806;-70
2023/04/23 00:57:55;;;;;;;17.80;11.90;;;;;;;11.18;45.52;99799.58;102664;1262;138112;-72
2023/04/23 01:00:19;;;;;;;21.60;12.50;;;;;;;11.16;45.87;99802.48;102657;1262;107855;-70
2023/04/23 01:02:48;;;;;;;21.00;12.50;;;;;;;11.14;46.04;99804.09;102628;1262;138558;-71
2023/04/23 01:05:33;;;;;;;20.10;12.00;;;;;;;11.11;46.29;99801.25;103939;1258;107563;-70
2023/04/23 01:07:59;;;;;;;18.40;12.60;;;;;;;11.08;46.26;99805.55;103475;1257;97816;-70
2023/04/23 01:10:33;;;;;;;21.10;12.50;;;;;;;11.05;46.39;99810.22;103159;1256;110868;-70
2023/04/23 01:13:17;;;;;;;20.40;12.80;;;;;;;11.00;46.79;99809.89;103100;1256;109232;-71
2023/04/23 01:16:02;;;;;;;20.60;13.20;;;;;;;10.96;46.96;99806.77;103057;1256;138097;-71
2023/04/23 01:18:46;;;;;;;22.40;13.40;;;;;;;10.92;47.11;99805.70;103248;1256;107630;-71
2023/04/23 01:21:28;;;;;;;20.10;13.10;;;;;;;10.87;47.15;99813.54;103018;1256;138728;-71
2023/04/23 01:24:08;;;;;;;20.00;13.10;;;;;;;10.84;47.26;99812.95;103033;1256;111674;-71
2023/04/23 01:26:52;;;;;;;19.10;13.50;;;;;;;10.82;47.41;99811.35;103563;1256;138304;-72
2023/04/23 01:29:17;;;;;;;24.30;12.80;;;;;;;10.78;47.48;99810.96;103182;1259;97845;-71
2023/04/23 01:31:41;;;;;;;19.30;12.90;;;;;;;10.74;47.67;99807.79;103322;1257;107190;-72
2023/04/23 01:34:10;;;;;;;19.90;12.90;;;;;;;10.69;47.75;99807.14;103016;1256;138153;-71
2023/04/23 01:36:55;;;;;;;22.00;13.50;;;;;;;10.64;48.00;99805.29;103097;1260;111772;-71
2023/04/23 01:39:19;;;;;;;21.10;12.80;;;;;;;10.59;48.08;99805.46;103023;1256;138207;-71
2023/04/23 01:41:53;;;;;;;19.10;12.60;;;;;;;10.54;48.32;99806.70;103177;1256;97674;-70
2023/04/23 01:44:29;;;;;;;21.30;13.10;;;;;;;10.49;48.42;99807.06;102831;1261;139726;-71
2023/04/23 01:46:53;;;;;;;19.80;14.00;;;;;;;10.45;48.39;99804.27;103141;1257;97795;-71
2023/04/23 01:49:37;;;;;;;21.10;12.90;;;;;;;10.38;48.61;99796.01;103161;1256;114539;-71
2023/04/23 01:52:04;;;;;;;23.30;13.60;;;;;;;10.38;48.79;99803.98;102981;1256;138191;-71
2023/04/23 01:54:33;;;;;;;21.40;13.40;;;;;;;10.36;48.76;99801.85;103151;1256;98329;-71
2023/04/23 01:57:22;;;;;;;22.40;13.80;;;;;;;10.33;48.93;99806.47;102573;1262;138298;-71
2023/04/23 01:59:49;;;;;;;20.90;13.50;;;;;;;10.31;49.06;99806.73;102682;1262;97909;-72
2023/04/23 02:02:12;;;;;;;20.30;12.70;;;;;;;10.28;49.12;99805.96;103207;1252;138188;-70
2023/04/23 02:04:38;;;;;;;25.40;13.20;;;;;;;10.26;49.18;99806.56;103449;1257;106674;-73
2023/04/23 02:07:23;;;;;;;21.70;13.70;;;;;;;10.23;49.22;99805.61;102799;1261;98443;-72
2023/04/23 02:10:09;;;;;;;20.90;13.00;;;;;;;10.21;49.44;99805.15;102688;1265;138010;-73
2023/04/23 02:12:53;;;;;;;20.90;13.30;;;;;;;10.19;49.51;99803.84;103380;1264;97779;-72
2023/04/23 02:15:27;;;;;;;23.10;13.00;;;;;;;10.18;49.48;99800.59;102764;1259;138234;-72
2023/04/23 02:18:02;;;;;;;18.00;12.20;;;;;;;10.17;49.67;99803.91;102812;1259;108923;-72
2023/04/23 02:20:46;;;;;;;20.40;12.70;;;;;;;10.15;49.83;99801.55;103189;1262;139351;-72
2023/04/23 02:23:29;;;;;;;22.00;13.40;;;;;;;10.14;50.04;99801.45;102847;1263;106564;-72
2023/04/23 02:26:13;;;;;;;22.80;13.60;;;;;;;10.12;49.92;99798.89;103259;1259;138795;-71
2023/04/23 02:28:49;;;;;;;24.80;14.50;;;;;;;10.12;50.05;99796.13;102869;1258;111504;-72
2023/04/23 02:31:17;;;;;;;20.30;12.30;;;;;;;10.11;49.95;99800.83;102844;1259;108187;-72
2023/04/23 02:33:51;;;;;;;18.90;13.10;;;;;;;10.10;50.23;99797.91;102780;1263;138345;-72
2023/04/23 02:36:35;;;;;;;23.30;13.40;;;;;;;10.08;50.29;99799.21;102807;1264;111832;-72
2023/04/23 02:39:19;;;;;;;21.70;13.10;;;;;;;10.06;50.52;99797.04;103162;1260;139623;-72
2023/04/23 02:42:04;;;;;;;27.90;13.70;;;;;;;10.03;50.58;99798.34;103500;1254;110979;-72
2023/04/23 02:44:27;;;;;;;21.60;13.70;;;;;;;10.00;50.55;99798.27;103625;1257;138482;-72
2023/04/23 02:47:11;;;;;;;18.50;12.70;;;;;;;9.97;50.67;99796.14;103448;1257;97771;-72
2023/04/23 02:49:56;;;;;;;25.30;13.80;;;;;;;9.93;50.86;99795.06;103331;1257;107788;-72
2023/04/23 02:52:40;;;;;;;20.90;12.90;;;;;;;9.91;50.93;99796.38;103330;1253;97800;-72
2023/04/23 02:55:24;;;;;;;18.80;12.20;;;;;;;9.88;51.03;99797.02;103420;1254;112328;-72
2023/04/23 02:58:09;;;;;;;20.40;13.20;;;;;;;9.86;51.07;99796.19;103269;1255;138092;-72
2023/04/23 03:00:53;;;;;;;19.50;12.80;;;;;;;9.83;51.22;99793.86;103391;1257;97679;-72
2023/04/23 03:03:30;;;;;;;22.50;13.50;;;;;;;9.81;51.14;99792.90;103133;1254;137950;-72
2023/04/23 03:06:14;;;;;;;21.50;12.90;;;;;;;9.78;51.31;99792.66;103299;1259;97969;-72
2023/04/23 03:08:58;;;;;;;20.40;12.60;;;;;;;9.77;51.36;99794.29;104480;1253;138346;-72
2023/04/23 03:11:31;;;;;;;21.10;12.70;;;;;;;9.75;51.43;99794.54;103706;1259;106582;-72
2023/04/23 03:13:57;;;;;;;17.30;12.40;;;;;;;9.74;51.55;99795.08;103396;1259;97653;-72
2023/04/23 03:16:26;;;;;;;22.50;13.00;;;;;;;9.74;51.57;99794.41;103547;1260;138609;-71
2023/04/23 03:19:10;;;;;;;22.10;12.40;;;;;;;9.72;51.46;99794.10;103246;1259;97787;-71
2023/04/23 03:21:35;;;;;;;24.30;13.00;;;;;;;9.72;51.54;99793.09;103141;1260;137810;-70
2023/04/23 03:24:19;;;;;;;20.90;13.00;;;;;;;9.73;51.51;99792.03;103137;1260;108202;-72
2023/04/23 03:27:03;;;;;;;19.40;13.40;;;;;;;9.71;51.54;99787.05;103128;1259;138057;-72
2023/04/23 03:29:27;;;;;;;21.40;13.40;;;;;;;9.70;51.63;99789.67;103179;1260;107606;-72
2023/04/23 03:32:01;;;;;;;18.60;12.40;;;;;;;9.71;51.78;99788.27;103320;1258;97793;-71
2023/04/23 03:34:45;;;;;;;22.60;13.10;;;;;;;9.70;51.73;99790.36;103205;1258;111362;-71
2023/04/23 03:37:30;;;;;;;21.70;13.50;;;;;;;9.70;51.95;99789.52;102926;1264;107491;-72
2023/04/23 03:40:14;;;;;;;23.70;12.80;;;;;;;9.69;51.90;99790.73;102878;1263;138242;-71
2023/04/23 03:42:58;;;;;;;21.20;13.70;;;;;;;9.68;52.21;99783.98;102946;1259;107433;-72
2023/04/23 03:45:48;;;;;;;21.30;13.00;;;;;;;9.69;52.21;99786.74;102926;1263;138174;-72
2023/04/23 03:48:32;;;;;;;23.10;13.60;;;;;;;9.70;52.17;99784.30;102902;1263;111802;-72
2023/04/23 03:50:58;;;;;;;23.90;13.60;;;;;;;9.71;52.35;99783.75;103483;1260;138287;-72
2023/04/23 03:53:40;;;;;;;22.70;12.60;;;;;;;9.71;52.35;99781.83;102963;1263;97961;-72
2023/04/23 03:56:23;;;;;;;18.20;12.80;;;;;;;9.73;52.22;99780.89;102783;1263;138313;-71
2023/04/23 03:59:16;;;;;;;21.70;13.20;;;;;;;9.74;52.30;99783.29;103171;1259;97823;-72
2023/04/23 04:02:02;;;;;;;21.60;13.30;;;;;;;9.76;52.47;99785.10;103368;1263;111357;-72
2023/04/23 04:04:48;;;;;;;21.60;12.70;;;;;;;9.80;52.23;99787.92;102883;1263;110844;-72
2023/04/23 04:07:20;;;;;;;19.50;12.80;;;;;;;9.84;52.30;99786.38;103086;1261;97839;-71
2023/04/23 04:09:45;;;;;;;21.60;13.30;;;;;;;9.87;52.23;99787.48;103093;1257;137952;-72
2023/04/23 04:12:29;;;;;;;22.10;12.70;;;;;;;9.93;52.17;99786.41;103257;1255;97776;-72
2023/04/23 04:15:13;;;;;;;23.10;12.80;;;;;;;9.97;52.15;99786.77;103156;1257;137805;-71
2023/04/23 04:17:58;;;;;;;21.30;12.00;;;;;;;10.03;52.15;99789.50;103143;1257;110552;-71
2023/04/23 04:20:44;;;;;;;20.10;13.00;;;;;;;10.07;51.93;99790.22;103153;1257;138373;-71
2023/04/23 04:23:28;;;;;;;20.30;12.90;;;;;;;10.13;52.08;99791.04;103006;1261;109423;-70
2023/04/23 04:25:55;;;;;;;23.40;13.00;;;;;;;10.19;52.02;99794.80;103609;1257;97914;-71
2023/04/23 04:28:39;;;;;;;23.00;13.40;;;;;;;10.27;51.86;99791.56;102825;1258;137872;-71
2023/04/23 04:31:24;;;;;;;19.50;13.00;;;;;;;10.38;51.79;99792.73;102969;1257;108472;-71
2023/04/23 04:33:48;;;;;;;19.50;12.40;;;;;;;10.50;51.69;99789.67;102890;1260;138198;-71
2023/04/23 04:36:12;;;;;;;21.20;12.60;;;;;;;10.96;51.42;99786.58;103071;1257;108468;-71
2023/04/23 04:38:36;;;;;;;18.30;12.00;;;;;;;12.26;49.98;99781.39;103039;1260;138334;-70
2023/04/23 04:41:01;;;;;;;24.40;12.60;;;;;;;13.76;48.13;99778.15;102996;1261;111577;-70
2023/04/23 04:43:25;;;;;;;22.00;12.10;;;;;;;15.20;45.41;99777.17;103684;1257;107207;-72
2023/04/23 04:45:49;;;;;;;19.00;12.10;;;;;;;16.42;42.96;99774.46;103009;1257;138327;-72
2023/04/23 04:48:16;;;;;;;16.50;12.00;;;;;;;17.54;40.87;99773.90;103161;1257;108577;-72
2023/04/23 04:50:39;;;;;;;17.80;12.20;;;;;;;18.56;39.76;99771.50;103360;1257;138329;-72
2023/04/23 04:53:03;;;;;;;19.20;11.60;;;;;;;19.51;37.88;99766.67;103173;1259;111380;-72
2023/04/23 04:55:27;;;;;;;17.40;11.70;;;;;;;20.37;36.02;99768.76;103196;1257;108528;-73
2023/04/23 04:57:50;;;;;;;18.20;11.50;;;;;;;21.13;35.10;99759.71;103774;1260;138182;-73
2023/04/23 05:00:23;;;;;;;18.00;11.50;;;;;;;21.89;33.88;99754.61;103654;1260;107326;-72
2023/04/23 05:02:47;;;;;;;17.00;11.00;;;;;;;22.60;32.42;99754.17;103141;1257;138747;-72
2023/04/23 05:05:10;;;;;;;14.40;10.50;;;;;;;23.21;31.77;99753.24;103104;1257;111582;-72
2023/04/23 05:07:34;;;;;;;15.60;11.10;;;;;;;23.84;31.06;99745.17;103340;1258;107985;-72
2023/04/23 05:09:57;;;;;;;13.60;10.40;;;;;;;24.48;29.44;99740.46;103098;1257;138224;-72
2023/04/23 05:12:21;;;;;;;15.60;10.80;;;;;;;24.94;28.61;99746.25;103011;1257;108544;-72
2023/04/23 05:14:45;;;;;;;19.90;11.10;;;;;;;25.41;28.03;99744.48;102769;1271;138445;-72
2023/04/23 05:17:08;;;;;;;15.50;10.30;;;;;;;25.77;27.25;99735.92;103083;1259;112012;-72
2023/04/23 05:19:32;;;;;;;13.40;10.10;;;;;;;26.34;26.53;99743.14;102797;1257;258487;-72
2023/04/23 05:21:55;;;;;;;15.90;10.30;;;;;;;26.69;25.12;99747.70;103029;1257;138253;-71
2023/04/23 05:24:19;;;;;;;12.40;10.10;;;;;;;26.92;25.14;99747.14;102963;1260;107754;-71
2023/04/23 05:26:42;;;;;;;15.90;10.20;;;;;;;27.20;24.53;99747.27;102894;1260;138316;-71
2023/04/23 05:29:06;;;;;;;13.40;9.90;;;;;;;27.52;24.32;99736.71;103050;1257;111249;-72
2023/04/23 05:31:30;;;;;;;12.90;9.70;;;;;;;27.93;24.08;99738.14;103040;1258;107440;-71
2023/04/23 05:33:53;;;;;;;15.60;10.20;;;;;;;28.46;23.75;99737.95;104119;1257;138570;-72
2023/04/23 05:36:17;;;;;;;15.80;9.50;;;;;;;28.86;23.07;99732.52;102958;1257;106830;-71
2023/04/23 05:38:40;;;;;;;13.10;9.30;;;;;;;29.22;22.55;99731.67;102911;1257;138608;-71
2023/04/23 05:41:04;;;;;;;12.30;9.90;;;;;;;29.70;22.41;99728.99;103005;1260;110128;-72
2023/04/23 05:43:27;;;;;;;18.10;8.90;;;;;;;30.18;21.35;99727.67;103479;1257;107467;-72
2023/04/23 05:45:51;;;;;;;12.50;8.40;;;;;;;30.44;20.88;99729.34;102965;1260;138535;-72
2023/04/23 05:48:15;;;;;;;10.60;8.90;;;;;;;30.53;19.98;99734.59;103044;1260;108124;-72
2023/04/23 05:50:38;;;;;;;12.80;8.80;;;;;;;30.44;20.10;99734.45;102886;1260;138711;-72
2023/04/23 05:53:02;;;;;;;11.60;8.60;;;;;;;30.64;20.07;99735.75;103282;1257;111161;-72
2023/04/23 05:55:26;;;;;;;11.80;7.90;;;;;;;31.04;19.98;99732.34;103159;1257;107924;-72
2023/04/23 05:57:50;;;;;;;12.20;8.90;;;;;;;31.58;20.08;99725.08;103168;1260;137974;-71
2023/04/23 06:00:15;;;;;;;14.50;8.20;;;;;;;31.98;18.84;99724.04;103629;1254;107515;-72
2023/04/23 06:02:38;;;;;;;;;;;;;;;31.99;18.66;99730.64;103156;1259;138811;-71
2023/04/23 06:05:02;;;;;;;9.10;7.70;;;;;;;31.98;18.44;99728.73;103263;1267;112077;-71
2023/04/23 06:07:27;;;;;;;11.20;7.70;;;;;;;32.09;18.46;99726.61;103441;1255;107677;-72
2023/04/23 06:09:50;;;;;;;9.20;7.40;;;;;;;32.33;18.64;99716.73;103127;1258;138047;-71
2023/04/23 06:12:13;;;;;;;9.90;7.10;;;;;;;32.77;18.03;99721.53;103220;1254;107796;-70
2023/04/23 06:14:37;;;;;;;12.20;7.30;;;;;;;32.88;17.40;99723.40;103100;1254;137965;-73
2023/04/23 06:17:00;;;;;;;10.10;6.80;;;;;;;32.88;17.30;99722.06;103383;1257;110957;-72
2023/04/23 06:19:26;;;;;;;8.90;7.20;;;;;;;32.87;17.11;99718.53;103540;1258;106898;-71
2023/04/23 06:21:50;;;;;;;8.80;7.00;;;;;;;32.97;17.27;99720.58;103055;1257;137823;-71
2023/04/23 06:24:14;;;;;;;8.70;6.60;;;;;;;33.18;16.94;99725.56;102928;1260;108175;-73
2023/04/23 06:26:37;;;;;;;10.20;6.40;;;;;;;33.18;16.78;99723.85;102837;1260;138067;-72
2023/04/23 06:29:06;;;;;;;8.50;6.20;;;;;;;33.33;17.07;99726.33;103183;1260;103741;-65
2023/04/23 06:31:34;;;;;;;9.60;6.20;;;;;;;33.71;16.76;99722.27;103499;1254;100537;-67
2023/04/23 06:33:58;;;;;;;9.60;6.20;;;;;;;34.01;16.29;99728.50;103039;1260;137974;-67
2023/04/23 06:36:21;;;;;;;8.10;6.00;;;;;;;34.13;15.54;99728.66;103126;1260;99974;-66
2023/04/23 06:38:44;;;;;;;11.20;6.30;;;;;;;33.90;15.26;99726.31;103003;1254;137831;-66
2023/04/23 06:41:08;;;;;;;14.30;7.60;;;;;;;33.82;15.86;99723.70;103262;1260;102534;-78
2023/04/23 06:43:31;;;;;;;8.00;6.10;;;;;;;33.59;15.69;99726.34;103179;1254;99322;-72
2023/04/23 06:46:13;;;;;;;8.40;5.80;;;;;;;33.25;15.53;99728.89;103085;1254;137583;-74
2023/04/23 06:48:37;;;;;;;7.80;6.00;;;;;;;33.11;15.84;99726.32;103095;1257;108128;-74
2023/04/23 06:51:00;;;;;;;10.60;6.00;;;;;;;33.10;16.17;99723.33;103148;1256;138409;-73
2023/04/23 06:53:24;;;;;;;8.90;5.90;;;;;;;33.30;16.01;99724.73;103131;1254;103789;-70
2023/04/23 06:55:50;;;;;;;11.40;6.10;;;;;;;33.49;16.11;99716.38;103172;1254;109026;-73
2023/04/23 06:58:13;;;;;;;8.60;6.30;;;;;;;33.64;15.67;99723.13;103061;1255;138023;-73
2023/04/23 07:00:38;;;;;;;9.60;6.30;;;;;;;33.73;15.77;99717.73;103190;1257;101172;-74
2023/04/23 07:03:02;;;;;;;8.40;6.00;;;;;;;33.74;15.54;99718.98;102845;1260;138658;-74
2023/04/23 07:05:25;;;;;;;7.40;6.40;;;;;;;33.75;15.50;99717.52;103008;1260;103618;-73
2023/04/23 07:07:49;;;;;;;10.70;6.30;;;;;;;33.91;15.83;99715.63;103109;1255;98799;-73
2023/04/23 07:10:13;;;;;;;10.20;5.60;;;;;;;34.23;15.73;99712.08;104201;1257;138045;-73
2023/04/23 07:12:40;;;;;;;7.40;5.40;;;;;;;34.30;15.00;99722.77;103008;1260;100355;-74
2023/04/23 07:15:06;;;;;;;9.90;5.50;;;;;;;33.76;14.78;99728.42;102987;1260;138006;-74
2023/04/23 07:17:29;;;;;;;;;;;;;;;33.19;15.01;99723.73;103723;1257;103753;-74
2023/04/23 07:19:52;;;;;;;10.20;6.00;;;;;;;32.61;15.32;99733.87;103046;1257;100130;-73
2023/04/23 07:22:16;;;;;;;6.70;5.60;;;;;;;32.02;15.80;99721.51;102883;1257;138300;-73
2023/04/23 07:24:40;;;;;;;8.70;5.80;;;;;;;31.71;16.15;99719.77;103146;1257;107920;-73
2023/04/23 07:27:05;;;;;;;7.10;5.70;;;;;;;31.49;16.47;99719.04;102870;1257;138427;-75
2023/04/23 07:29:28;;;;;;;7.40;5.80;;;;;;;31.36;16.57;99723.88;102990;1257;112316;-75
2023/04/23 07:31:52;;;;;;;9.90;6.40;;;;;;;31.27;16.78;99722.86;102828;1257;107779;-75
2023/04/23 07:34:15;;;;;;;12.70;6.50;;;;;;;31.48;17.44;99708.91;102916;1257;137882;-75
2023/04/23 07:36:39;;;;;;;13.00;6.30;;;;;;;32.02;16.78;99711.77;102904;1257;109963;-73
2023/04/23 07:39:04;;;;;;;12.50;5.80;;;;;;;32.36;16.59;99708.63;102922;1258;138352;-75
2023/04/23 07:41:27;;;;;;;9.80;5.70;;;;;;;32.37;16.33;99705.45;103014;1257;111842;-73
2023/04/23 07:43:51;;;;;;;8.10;5.80;;;;;;;32.39;16.51;99706.90;103173;1257;108035;-73
2023/04/23 07:46:14;;;;;;;9.30;5.50;;;;;;;32.58;16.44;99699.09;102890;1257;137752;-73
2023/04/23 07:48:38;;;;;;;11.20;5.60;;;;;;;32.72;15.80;99707.77;102860;1256;107270;-73
2023/04/23 07:51:02;;;;;;;6.50;5.00;;;;;;;32.61;15.75;99699.77;102901;1260;138335;-73
2023/04/23 07:53:27;;;;;;;6.10;4.80;;;;;;;32.43;15.74;99708.09;103110;1259;110244;-75
2023/04/23 07:55:51;;;;;;;7.90;4.90;;;;;;;32.14;15.47;99711.36;103029;1260;106946;-76
2023/04/23 07:58:14;;;;;;;7.80;4.80;;;;;;;31.90;15.47;99716.16;102843;1260;137793;-74
2023/04/23 08:00:38;;;;;;;6.90;5.10;;;;;;;31.75;15.94;99703.66;102875;1256;107720;-74
2023/04/23 08:03:01;;;;;;;8.20;5.00;;;;;;;31.68;16.07;99709.94;102813;1259;138599;-74
2023/04/23 08:05:25;;;;;;;7.50;4.90;;;;;;;31.75;16.23;99703.46;102939;1257;110923;-75
2023/04/23 08:07:49;;;;;;;6.70;4.70;;;;;;;31.98;16.18;99698.98;102934;1257;107673;-75
2023/04/23 08:10:13;;;;;;;8.10;4.70;;;;;;;32.17;15.94;99701.04;102814;1257;138554;-74
2023/04/23 08:12:36;;;;;;;7.80;4.80;;;;;;;32.08;15.65;99698.80;102865;1260;107442;-79
2023/04/23 08:15:00;;;;;;;6.60;4.50;;;;;;;31.97;15.82;99701.02;102762;1256;138357;-76
2023/04/23 08:17:27;;;;;;;7.30;4.10;;;;;;;31.78;15.24;99703.88;102876;1257;111322;-81
2023/04/23 08:19:50;;;;;;;9.60;3.90;;;;;;;31.32;15.54;99708.27;102934;1257;107330;-86
2023/04/23 08:22:15;;;;;;;6.40;4.10;;;;;;;31.03;15.80;99699.09;102782;1257;137816;-83
2023/04/23 08:24:38;;;;;;;6.40;4.20;;;;;;;30.87;15.83;99693.45;102859;1257;107609;-86
2023/04/23 08:27:01;;;;;;;9.90;4.20;;;;;;;30.82;15.88;99702.43;102751;1261;139098;-77
2023/04/23 08:29:25;;;;;;;4.70;3.50;;;;;;;30.49;15.82;99710.52;102881;1260;112321;-85
2023/04/23 08:31:49;;;;;;;7.20;3.90;;;;;;;30.24;16.11;99697.30;102835;1255;107630;-77
2023/04/23 08:34:13;;;;;;;6.20;3.90;;;;;;;30.16;15.90;99691.48;102845;1257;137863;-76
2023/04/23 08:36:37;;;;;;;8.90;3.90;;;;;;;30.13;16.24;99694.09;102801;1257;107113;-78
2023/04/23 08:39:02;;;;;;;5.10;4.00;;;;;;;29.94;16.30;99689.67;102782;1257;138045;-78
2023/04/23 08:41:31;;;;;;;8.00;4.10;;;;;;;29.56;16.56;99696.95;102919;1260;111605;-77
2023/04/23 08:44:05;;;;;;;6.50;3.60;;;;;;;29.50;16.53;99695.13;102826;1257;107123;-74
2023/04/23 08:46:32;;;;;;;6.50;4.40;;;;;;;29.09;16.96;99691.91;102975;1259;138046;-78
2023/04/23 08:48:58;;;;;;;4.20;3.20;;;;;;;28.81;17.03;99684.45;104540;1254;109355;-77
2023/04/23 08:51:23;;;;;;;;;;;;;;;28.63;16.83;99689.98;104475;1254;138053;-79
2023/04/23 08:53:51;;;;;;;8.50;3.90;;;;;;;28.42;17.19;99686.07;104575;1254;110584;-80
2023/04/23 08:56:15;;;;;;;5.50;3.60;;;;;;;28.34;17.22;99675.52;104555;1254;107537;-80
2023/04/23 08:58:38;;;;;;;5.30;3.30;;;;;;;28.27;17.41;99672.17;104423;1254;138683;-80
2023/04/23 09:01:03;;;;;;;5.90;3.30;;;;;;;28.43;17.62;99674.80;104546;1254;108634;-81
2023/04/23 09:03:28;;;;;;;6.70;3.40;;;;;;;28.52;17.00;99673.41;103312;1257;137933;-80
2023/04/23 09:05:52;;;;;;;4.80;3.40;;;;;;;28.56;17.27;99667.37;103110;1259;110905;-79
2023/04/23 09:08:15;;;;;;;6.70;3.50;;;;;;;28.53;17.19;99670.07;103042;1254;107877;-80
2023/04/23 09:10:41;;;;;;;4.50;3.60;;;;;;;28.36;17.20;99667.77;102981;1254;138484;-80
2023/04/23 09:13:05;;;;;;;4.00;2.90;;;;;;;28.09;17.61;99661.40;103098;1255;109272;-80
2023/04/23 09:15:28;;;;;;;6.10;3.90;;;;;;;28.19;17.86;99651.83;102978;1254;137873;-80
2023/04/23 09:17:52;;;;;;;6.10;3.40;;;;;;;28.41;17.74;99660.16;103113;1259;110711;-80
2023/04/23 09:20:16;;;;;;;6.80;3.40;;;;;;;28.37;17.46;99660.15;103143;1254;107969;-79
2023/04/23 09:22:42;;;;;;;3.80;2.90;;;;;;;28.32;17.32;99662.33;103035;1259;138132;-80
2023/04/23 09:25:10;;;;;;;7.20;3.20;;;;;;;28.19;17.40;99660.40;103018;1254;108161;-79
2023/04/23 09:27:35;;;;;;;5.20;3.30;;;;;;;28.05;17.05;99661.69;102985;1255;138314;-77
2023/04/23 09:30:03;;;;;;;6.00;3.30;;;;;;;27.76;17.56;99658.91;103801;1254;112272;-80
2023/04/23 09:32:32;;;;;;;4.40;3.40;;;;;;;27.61;17.84;99657.28;102903;1259;138290;-78
2023/04/23 09:34:57;;;;;;;5.60;3.10;;;;;;;27.75;18.25;99647.80;103015;1254;97808;-77
2023/04/23 09:37:25;;;;;;;5.30;3.30;;;;;;;28.11;18.15;99650.23;103054;1254;109024;-78
2023/04/23 09:39:52;;;;;;;4.60;3.40;;;;;;;28.19;17.79;99645.86;104386;1256;137918;-78
2023/04/23 09:42:15;;;;;;;5.40;3.50;;;;;;;28.05;17.46;99661.32;104498;1253;111320;-80
2023/04/23 09:44:39;;;;;;;4.20;3.00;;;;;;;27.86;17.45;99647.59;104438;1253;138123;-78
2023/04/23 09:47:10;;;;;;;5.70;3.30;;;;;;;27.89;18.21;99636.85;104487;1254;95835;-79
2023/04/23 09:49:45;;;;;;;4.30;3.50;;;;;;;28.04;18.37;99637.27;104497;1253;108862;-80
2023/04/23 09:52:09;;;;;;;7.30;3.30;;;;;;;28.30;18.34;99644.91;104400;1256;138571;-82
2023/04/23 09:54:33;;;;;;;12.80;2.90;;;;;;;28.21;17.56;99642.30;104607;1254;109962;-66
2023/04/23 09:57:00;;;;;;;6.10;3.20;;;;;;;27.92;17.59;99646.87;104259;1255;138835;-64
2023/04/23 09:59:26;;;;;;;6.10;3.30;;;;;;;27.76;17.97;99631.45;103027;1255;98346;-66
2023/04/23 10:02:10;;;;;;;5.80;3.00;;;;;;;27.79;18.27;99622.89;104303;1255;107415;-63
2023/04/23 10:04:35;;;;;;;5.60;3.30;;;;;;;28.03;18.12;99635.67;103340;1255;137978;-63
2023/04/23 10:07:00;;;;;;;4.00;3.10;;;;;;;27.95;18.12;99625.95;103751;1255;111105;-66
2023/04/23 10:09:42;;;;;;;5.60;3.20;;;;;;;27.81;18.19;99619.06;102806;1260;137779;-65
2023/04/23 10:12:07;;;;;;;6.60;3.10;;;;;;;27.73;18.14;99619.23;104429;1255;96315;-68
2023/04/23 10:14:45;;;;;;;4.40;3.00;;;;;;;27.57;18.02;99624.16;103878;1257;137821;-67
2023/04/23 10:17:09;;;;;;;5.50;2.90;;;;;;;27.25;18.21;99623.36;103208;1259;98510;-68
2023/04/23 10:19:33;;;;;;;5.30;3.00;;;;;;;27.01;18.60;99610.55;103093;1260;111870;-68
2023/04/23 10:22:00;;;;;;;6.00;3.40;;;;;;;26.91;18.87;99605.70;103063;1254;138080;-67
2023/04/23 10:24:43;;;;;;;3.80;3.10;;;;;;;26.77;18.62;99610.27;104599;1254;96049;-68
2023/04/23 10:27:11;;;;;;;4.90;3.20;;;;;;;26.61;19.23;99602.13;104488;1254;137845;-67
2023/04/23 10:29:52;;;;;;;5.60;3.20;;;;;;;26.64;19.61;99592.83;104636;1253;96165;-68
2023/04/23 10:32:17;;;;;;;4.80;3.20;;;;;;;26.67;19.47;99590.81;104564;1254;110853;-67
2023/04/23 10:34:42;;;;;;;8.50;3.40;;;;;;;26.65;19.42;99591.31;104445;1254;138418;-71
2023/04/23 10:37:07;;;;;;;7.60;3.00;;;;;;;26.76;19.50;99587.45;104583;1254;95991;-71
2023/04/23 10:39:33;;;;;;;5.70;3.40;;;;;;;26.97;19.00;99587.56;104382;1255;137706;-69
2023/04/23 10:41:56;;;;;;;;;;;;;;;26.87;18.83;99583.73;103095;1259;97807;-67
2023/04/23 10:44:20;;;;;;;6.00;3.10;;;;;;;26.54;18.59;99585.53;103023;1255;112340;-72
2023/04/23 10:47:05;;;;;;;4.30;3.10;;;;;;;26.30;18.98;99587.04;103162;1257;108803;-70
2023/04/23 10:49:31;;;;;;;3.80;3.20;;;;;;;26.20;19.05;99588.50;102951;1255;97801;-68
2023/04/23 10:52:00;;;;;;;7.20;3.60;;;;;;;26.12;19.45;99579.37;102906;1255;137717;-76
2023/04/23 10:54:30;;;;;;;9.90;3.30;;;;;;;26.20;19.41;99588.00;103076;1255;97815;-70
2023/04/23 10:57:00;;;;;;;11.60;3.40;;;;;;;25.89;19.52;99575.32;103425;1255;137793;-69
2023/04/23 10:59:23;;;;;;;6.40;3.30;;;;;;;25.53;19.68;99583.59;103113;1255;106961;-68
2023/04/23 11:01:49;;;;;;;6.20;3.30;;;;;;;25.36;20.06;99576.29;103139;1260;97685;-70
2023/04/23 11:04:22;;;;;;;5.30;2.70;;;;;;;25.17;20.06;99575.11;103490;1255;137859;-73
2023/04/23 11:06:56;;;;;;;8.30;3.50;;;;;;;24.92;20.00;99568.39;103675;1255;97824;-73
2023/04/23 11:09:35;;;;;;;4.00;2.80;;;;;;;24.67;20.37;99579.61;103318;1254;137724;-69
2023/04/23 11:12:00;;;;;;;6.40;3.00;;;;;;;24.28;20.74;99580.71;103117;1255;107821;-67
2023/04/23 11:14:36;;;;;;;5.20;3.20;;;;;;;24.07;21.06;99568.73;103608;1255;97792;-67
2023/04/23 11:16:59;;;;;;;5.30;3.30;;;;;;;24.00;21.20;99563.05;103986;1259;106851;-67
2023/04/23 11:19:22;;;;;;;8.60;3.30;;;;;;;23.92;21.30;99554.65;103195;1254;97769;-68
2023/04/23 11:21:59;;;;;;;3.60;3.20;;;;;;;23.94;21.46;99553.88;103135;1255;137861;-67
2023/04/23 11:24:23;;;;;;;6.30;3.10;;;;;;;23.94;21.31;99557.63;103539;1254;107709;-68